Terminal Aerodrome Forecast
Issued by NWS Twin Cities, MN

Home | Current Version | Previous Version | Text Only | Print | Product List | Glossary On
Versions: 1 2 3 4 5 6 7 8 9 10 11 12 13 14 15 16
000
FTUS43 KMPX 250500
TAFSTC
TAF
KSTC 250539Z 2506/2606 23006KT P6SM BKN008 OVC015
     FM251200 20004KT P6SM BKN012
     FM251500 VRB03KT 2SM -SN BR SCT009 OVC015
     FM251900 34002KT 6SM -SN SCT009 OVC015
     FM260300 36004KT 4SM -SN OVC008=

USA.gov is the U.S. government's official web portal to all federal, state and local government web resources and services.